createdAt,value
2019-01-31T00:00:25.992Z,10.47
2019-01-31T00:03:05.348Z,10.43
2019-01-31T00:05:44.535Z,8.77
2019-01-31T00:08:29.748Z,9.83
2019-01-31T00:11:05.656Z,11.77
2019-01-31T00:13:47.412Z,9.20
2019-01-31T00:16:20.283Z,9.07
2019-01-31T00:19:11.606Z,11.07
2019-01-31T00:21:53.992Z,10.50
2019-01-31T00:24:26.849Z,9.07
2019-01-31T00:26:59.944Z,8.93
2019-01-31T00:29:45.495Z,9.90
2019-01-31T00:32:33.503Z,8.20
2019-01-31T00:35:25.064Z,8.80
2019-01-31T00:38:04.252Z,8.60
2019-01-31T00:41:03.295Z,8.03
2019-01-31T00:43:45.348Z,8.87
2019-01-31T00:46:21.277Z,8.53
2019-01-31T00:48:57.546Z,8.10
2019-01-31T00:51:50.144Z,9.27
2019-01-31T00:54:37.811Z,8.33
2019-01-31T00:57:10.675Z,8.57
2019-01-31T00:59:55.888Z,9.03
2019-01-31T01:02:52.040Z,9.23
2019-01-31T01:05:39.153Z,8.87
2019-01-31T01:08:12.334Z,9.67
2019-01-31T01:10:45.208Z,8.83
2019-01-31T01:13:15.360Z,10.07
2019-01-31T01:15:57.815Z,8.37
2019-01-31T01:18:54.051Z,8.80
2019-01-31T01:21:42.247Z,7.97
2019-01-31T01:24:33.687Z,8.13
2019-01-31T01:27:18.652Z,7.37
2019-01-31T01:29:51.309Z,7.93
2019-01-31T01:32:39.625Z,7.73
2019-01-31T01:35:24.337Z,7.50
2019-01-31T01:37:54.527Z,7.27
2019-01-31T01:40:50.431Z,8.00
2019-01-31T01:43:42.898Z,7.63
2019-01-31T01:46:25.246Z,7.90
2019-01-31T01:49:07.612Z,7.23
2019-01-31T01:51:52.769Z,7.77
2019-01-31T01:54:45.592Z,7.13
2019-01-31T01:57:36.974Z,5.83
2019-01-31T02:00:28.077Z,6.90
2019-01-31T02:05:45.308Z,6.30
2019-01-31T02:08:33.504Z,7.43
2019-01-31T02:11:15.686Z,5.97
2019-01-31T02:13:48.576Z,5.33
2019-01-31T02:16:31.234Z,6.13
2019-01-31T02:19:01.347Z,4.57
2019-01-31T02:21:43.268Z,7.33
2019-01-31T02:24:16.175Z,5.50
2019-01-31T02:27:03.070Z,5.10
2019-01-31T02:29:39.024Z,6.17
2019-01-31T02:32:24.311Z,5.20
2019-01-31T02:35:03.548Z,5.97
2019-01-31T02:37:58.446Z,5.03
2019-01-31T02:40:40.461Z,5.10
2019-01-31T02:43:28.449Z,5.50
2019-01-31T02:46:13.666Z,5.10
2019-01-31T02:48:43.795Z,10.40
2019-01-31T02:51:16.740Z,5.20
2019-01-31T02:53:55.212Z,5.50
2019-01-31T02:56:36.957Z,5.70
2019-01-31T02:59:13.261Z,5.30
2019-01-31T03:01:46.612Z,5.70
2019-01-31T03:04:19.572Z,5.87
2019-01-31T03:07:07.965Z,5.30
2019-01-31T03:09:55.281Z,5.87
2019-01-31T03:12:31.170Z,5.27
2019-01-31T03:15:01.311Z,6.27
2019-01-31T03:17:40.317Z,6.07
2019-01-31T03:20:13.232Z,5.20
2019-01-31T03:22:49.159Z,5.37
2019-01-31T03:25:25.096Z,5.90
2019-01-31T03:28:10.384Z,5.67
2019-01-31T03:30:49.338Z,6.20
2019-01-31T03:33:19.538Z,5.43
2019-01-31T03:35:52.711Z,5.83
2019-01-31T03:38:29.024Z,8.10
2019-01-31T03:41:20.286Z,5.87
2019-01-31T03:44:02.741Z,6.80
2019-01-31T03:46:50.815Z,5.37
2019-01-31T03:49:30.292Z,5.40
2019-01-31T03:52:26.634Z,4.97
2019-01-31T03:55:05.778Z,4.97
2019-01-31T03:57:53.881Z,4.70
2019-01-31T04:00:32.949Z,4.83
2019-01-31T04:03:03.082Z,4.70
2019-01-31T04:05:33.272Z,4.73
2019-01-31T04:07:59.949Z,4.77
2019-01-31T04:10:26.478Z,5.90
2019-01-31T04:12:53.026Z,5.17
2019-01-31T04:15:19.560Z,4.53
2019-01-31T04:17:46.213Z,5.60
2019-01-31T04:20:12.902Z,5.27
2019-01-31T04:22:39.457Z,5.07
2019-01-31T04:25:06.006Z,7.97
2019-01-31T04:27:32.574Z,4.57
2019-01-31T04:29:59.084Z,6.00
2019-01-31T04:32:25.693Z,5.53
2019-01-31T04:34:52.269Z,4.20
2019-01-31T04:37:18.811Z,4.80
2019-01-31T04:39:45.339Z,4.90
2019-01-31T04:42:11.885Z,4.23
2019-01-31T04:44:38.467Z,5.00
2019-01-31T04:47:04.997Z,5.27
2019-01-31T04:49:31.561Z,4.30
2019-01-31T04:51:58.079Z,4.57
2019-01-31T04:54:24.652Z,4.33
2019-01-31T04:56:51.265Z,3.77
2019-01-31T04:59:17.893Z,4.97
2019-01-31T05:01:44.473Z,4.40
2019-01-31T05:04:11.142Z,4.20
2019-01-31T05:06:37.746Z,4.00
2019-01-31T05:09:06.005Z,4.57
2019-01-31T05:11:32.581Z,4.83
2019-01-31T05:13:59.269Z,5.20
2019-01-31T05:16:25.784Z,4.07
2019-01-31T05:18:52.349Z,4.97
2019-01-31T05:21:21.060Z,4.20
2019-01-31T05:23:47.729Z,5.20
2019-01-31T05:26:14.285Z,4.70
2019-01-31T05:28:40.815Z,3.93
2019-01-31T05:31:07.373Z,4.27
2019-01-31T05:33:33.904Z,5.37
2019-01-31T05:36:00.466Z,4.60
2019-01-31T05:38:27.002Z,4.23
2019-01-31T05:40:55.774Z,4.93
2019-01-31T05:43:21.886Z,4.17
2019-01-31T05:45:48.450Z,4.60
2019-01-31T05:48:14.967Z,3.73
2019-01-31T05:50:41.540Z,5.10
2019-01-31T05:53:08.101Z,6.73
2019-01-31T05:55:34.642Z,4.10
2019-01-31T05:58:01.200Z,5.40
2019-01-31T06:00:29.633Z,5.60
2019-01-31T06:02:56.313Z,6.00
2019-01-31T06:05:23.108Z,4.57
2019-01-31T06:07:49.646Z,5.00
2019-01-31T06:10:16.197Z,4.83
2019-01-31T06:12:42.829Z,4.00
2019-01-31T06:15:16.873Z,5.50
2019-01-31T06:17:43.551Z,3.90
2019-01-31T06:20:21.572Z,4.83
2019-01-31T06:22:48.150Z,4.80
2019-01-31T06:25:14.831Z,5.37
2019-01-31T06:27:41.338Z,5.03
2019-01-31T06:30:11.066Z,6.03
2019-01-31T06:32:37.658Z,4.77
2019-01-31T06:35:07.044Z,9.47
2019-01-31T06:37:33.643Z,4.97
2019-01-31T06:40:00.343Z,5.13
2019-01-31T06:42:27.089Z,6.30
2019-01-31T06:44:53.667Z,6.13
2019-01-31T06:47:20.221Z,5.70
2019-01-31T06:49:46.849Z,5.87
2019-01-31T06:52:13.413Z,5.63
2019-01-31T06:54:39.938Z,5.07
2019-01-31T06:57:06.489Z,5.30
2019-01-31T06:59:33.175Z,6.43
2019-01-31T07:01:59.822Z,5.10
2019-01-31T07:04:26.344Z,5.10
2019-01-31T07:06:53.068Z,5.90
2019-01-31T07:09:19.621Z,7.67
2019-01-31T07:11:46.132Z,6.50
2019-01-31T07:14:12.701Z,6.50
2019-01-31T07:16:39.368Z,6.20
2019-01-31T07:19:05.929Z,5.90
2019-01-31T07:21:32.523Z,6.93
2019-01-31T07:23:59.028Z,9.17
2019-01-31T07:26:25.595Z,6.50
2019-01-31T07:28:52.134Z,7.70
2019-01-31T07:31:19.154Z,6.97
2019-01-31T07:33:45.732Z,8.00
2019-01-31T07:36:12.247Z,8.03
2019-01-31T07:38:38.877Z,6.43
2019-01-31T07:41:05.601Z,5.80
2019-01-31T07:43:32.214Z,6.87
2019-01-31T07:45:58.869Z,6.57
2019-01-31T07:48:25.533Z,10.90
2019-01-31T07:50:52.181Z,5.13
2019-01-31T07:53:18.845Z,7.70
2019-01-31T07:55:45.493Z,5.53
2019-01-31T07:58:12.064Z,5.00
2019-01-31T08:00:38.692Z,5.57
2019-01-31T08:03:05.229Z,5.63
2019-01-31T08:05:31.892Z,5.43
2019-01-31T08:07:58.459Z,4.60
2019-01-31T08:10:28.242Z,5.90
2019-01-31T08:12:54.779Z,4.73
2019-01-31T08:15:21.348Z,6.03
2019-01-31T08:17:47.896Z,5.60
2019-01-31T08:20:16.141Z,5.97
2019-01-31T08:22:42.798Z,5.20
2019-01-31T08:25:12.628Z,4.90
2019-01-31T08:27:39.293Z,5.63
2019-01-31T08:30:11.833Z,7.13
2019-01-31T08:32:38.504Z,4.00
2019-01-31T08:35:05.345Z,4.90
2019-01-31T08:37:31.849Z,5.10
2019-01-31T08:39:58.417Z,5.10
2019-01-31T08:42:24.939Z,5.00
2019-01-31T08:44:51.513Z,4.53
2019-01-31T08:47:18.181Z,5.23
2019-01-31T08:49:44.762Z,5.30
2019-01-31T08:52:11.283Z,4.97
2019-01-31T08:54:37.854Z,4.90
2019-01-31T08:57:04.479Z,4.10
2019-01-31T08:59:31.061Z,5.33
2019-01-31T09:01:57.578Z,4.83
2019-01-31T09:04:24.165Z,4.73
2019-01-31T09:06:50.734Z,4.10
2019-01-31T09:09:17.270Z,7.17
2019-01-31T09:11:44.109Z,4.27
2019-01-31T09:14:10.653Z,5.10
2019-01-31T09:16:37.228Z,4.10
2019-01-31T09:19:04.204Z,4.70
2019-01-31T09:21:34.552Z,4.77
2019-01-31T09:24:10.638Z,8.43
2019-01-31T09:26:57.317Z,4.80
2019-01-31T09:29:36.032Z,4.83
2019-01-31T09:32:12.348Z,5.60
2019-01-31T09:34:57.985Z,4.00
2019-01-31T09:37:49.288Z,4.57
2019-01-31T09:40:22.168Z,3.67
2019-01-31T09:43:10.716Z,3.53
2019-01-31T09:45:58.772Z,3.87
2019-01-31T09:48:31.947Z,4.00
2019-01-31T09:51:07.806Z,3.27
2019-01-31T09:53:59.024Z,4.10
2019-01-31T09:56:29.237Z,3.70
2019-01-31T09:59:05.242Z,3.53
2019-01-31T10:01:38.504Z,3.93
2019-01-31T10:04:29.746Z,3.00
2019-01-31T10:07:18.481Z,2.43
2019-01-31T10:10:20.869Z,3.13
2019-01-31T10:13:03.388Z,3.03
2019-01-31T10:15:58.008Z,2.20
2019-01-31T10:18:42.624Z,3.63
2019-01-31T10:21:24.898Z,2.30
2019-01-31T10:24:20.903Z,2.60
2019-01-31T10:26:56.846Z,4.20
2019-01-31T10:29:38.881Z,6.27
2019-01-31T10:32:34.513Z,3.03
2019-01-31T10:35:10.573Z,1.57
2019-01-31T10:38:00.527Z,3.43
2019-01-31T10:40:39.715Z,1.60
2019-01-31T10:43:15.864Z,1.57
2019-01-31T10:45:55.198Z,1.17
2019-01-31T10:48:40.558Z,2.33
2019-01-31T10:51:35.052Z,14.90
2019-01-31T10:54:21.974Z,22.17
2019-01-31T10:56:52.132Z,2.17
2019-01-31T10:59:25.983Z,4.77
2019-01-31T11:02:08.354Z,2.80
2019-01-31T11:04:51.397Z,3.70
2019-01-31T11:07:48.966Z,1.60
2019-01-31T11:10:28.128Z,2.73
2019-01-31T11:13:00.705Z,1.90
2019-01-31T11:15:51.368Z,1.60
2019-01-31T11:18:33.765Z,2.07
2019-01-31T11:21:18.993Z,1.67
2019-01-31T11:24:00.944Z,1.83
2019-01-31T11:26:52.633Z,2.00
2019-01-31T11:29:22.787Z,2.20
2019-01-31T11:31:59.200Z,2.30
2019-01-31T11:34:44.234Z,2.40
2019-01-31T11:37:14.601Z,3.33
2019-01-31T11:39:56.712Z,1.93
2019-01-31T11:42:29.861Z,2.33
2019-01-31T11:45:03.059Z,1.70
2019-01-31T11:47:42.238Z,4.20
2019-01-31T11:50:28.832Z,1.90
2019-01-31T11:53:04.532Z,1.50
2019-01-31T11:55:34.724Z,7.30
2019-01-31T11:58:21.517Z,1.83
2019-01-31T12:00:48.097Z,1.60
2019-01-31T12:03:14.753Z,4.20
2019-01-31T12:05:41.414Z,2.70
2019-01-31T12:08:07.997Z,2.43
2019-01-31T12:10:34.865Z,6.07
2019-01-31T12:13:01.550Z,1.33
2019-01-31T12:15:28.085Z,4.13
2019-01-31T12:17:54.751Z,1.90
2019-01-31T12:20:21.286Z,1.20
2019-01-31T12:22:48.038Z,5.07
2019-01-31T12:25:14.554Z,2.77
2019-01-31T12:27:41.073Z,1.77
2019-01-31T12:30:17.118Z,2.73
2019-01-31T12:32:43.746Z,5.10
2019-01-31T12:35:10.501Z,1.10
2019-01-31T12:37:37.125Z,2.20
2019-01-31T12:40:07.290Z,1.77
2019-01-31T12:42:33.913Z,0.80
2019-01-31T12:45:00.503Z,1.60
2019-01-31T12:47:27.001Z,5.50
2019-01-31T12:49:53.536Z,1.40
2019-01-31T12:52:20.088Z,1.50
2019-01-31T12:54:46.618Z,0.70
2019-01-31T12:57:14.968Z,2.00
2019-01-31T12:59:41.537Z,2.23
2019-01-31T13:02:08.425Z,1.27
2019-01-31T13:04:34.956Z,6.00
2019-01-31T13:07:01.581Z,1.33
2019-01-31T13:09:28.501Z,1.10
2019-01-31T13:11:55.305Z,1.27
2019-01-31T13:14:21.867Z,0.97
2019-01-31T13:16:48.526Z,3.60
2019-01-31T13:19:15.010Z,6.40
2019-01-31T13:21:41.672Z,5.53
2019-01-31T13:24:08.324Z,1.13
2019-01-31T13:26:34.885Z,2.07
2019-01-31T13:29:01.424Z,1.00
2019-01-31T13:31:27.965Z,2.27
2019-01-31T13:33:54.565Z,3.30
2019-01-31T13:36:21.510Z,3.83
2019-01-31T13:38:48.156Z,1.30
2019-01-31T13:41:14.865Z,1.30
2019-01-31T13:43:41.405Z,2.13
2019-01-31T13:46:08.084Z,1.20
2019-01-31T13:48:34.781Z,1.50
2019-01-31T13:51:04.897Z,2.93
2019-01-31T13:53:31.522Z,1.50
2019-01-31T13:55:58.276Z,1.53
2019-01-31T13:58:24.810Z,2.53
2019-01-31T14:00:51.366Z,3.83
2019-01-31T14:03:17.904Z,1.30
2019-01-31T14:05:44.632Z,10.60
2019-01-31T14:08:11.219Z,1.40
2019-01-31T14:10:37.742Z,1.00
2019-01-31T14:13:04.298Z,1.57
2019-01-31T14:15:34.101Z,1.40
2019-01-31T14:18:00.938Z,2.57
2019-01-31T14:20:27.706Z,1.53
2019-01-31T14:22:54.875Z,1.73
2019-01-31T14:25:21.507Z,0.90
2019-01-31T14:27:50.024Z,2.20
2019-01-31T14:30:22.657Z,2.10
2019-01-31T14:32:49.969Z,0.70
2019-01-31T14:35:16.765Z,3.50
2019-01-31T14:37:43.323Z,1.17
2019-01-31T14:40:10.707Z,1.73
2019-01-31T14:42:37.292Z,1.60
2019-01-31T14:45:07.487Z,1.37
2019-01-31T14:47:34.112Z,0.90
2019-01-31T14:50:00.681Z,1.10
2019-01-31T14:52:28.408Z,1.60
2019-01-31T14:54:54.980Z,2.10
2019-01-31T14:57:22.507Z,2.03
2019-01-31T14:59:49.064Z,0.70
2019-01-31T15:02:15.590Z,1.17
2019-01-31T15:04:42.154Z,1.63
2019-01-31T15:07:08.757Z,2.40
2019-01-31T15:09:35.318Z,1.30
2019-01-31T15:12:01.925Z,2.90
2019-01-31T15:14:31.944Z,1.73
2019-01-31T15:16:56.881Z,2.07
2019-01-31T15:19:23.422Z,1.03
2019-01-31T15:21:50.076Z,4.23
2019-01-31T15:24:16.622Z,5.13
2019-01-31T15:26:43.318Z,2.00
2019-01-31T15:29:11.001Z,1.70
2019-01-31T15:31:37.681Z,1.73
2019-01-31T15:34:05.434Z,2.17
2019-01-31T15:36:32.037Z,3.13
2019-01-31T15:38:58.690Z,1.70
2019-01-31T15:41:25.241Z,1.90
2019-01-31T15:43:51.801Z,2.30
2019-01-31T15:46:18.325Z,1.83
2019-01-31T15:48:44.887Z,1.60
2019-01-31T15:51:11.557Z,3.37
2019-01-31T15:53:40.752Z,1.67
2019-01-31T15:56:07.696Z,2.10
2019-01-31T15:58:35.479Z,3.60
2019-01-31T16:01:02.523Z,2.37
2019-01-31T16:03:29.057Z,2.23
2019-01-31T16:05:55.882Z,3.13
2019-01-31T16:08:22.619Z,3.17
2019-01-31T16:10:49.479Z,2.10
2019-01-31T16:13:16.022Z,2.57
2019-01-31T16:15:48.233Z,2.77
2019-01-31T16:18:14.958Z,6.40
2019-01-31T16:20:41.684Z,3.20
2019-01-31T16:23:08.492Z,2.93
2019-01-31T16:25:35.013Z,2.70
2019-01-31T16:28:01.576Z,3.23
2019-01-31T16:30:28.113Z,3.30
2019-01-31T16:32:54.637Z,4.53
2019-01-31T16:35:21.200Z,2.83
2019-01-31T16:37:49.347Z,11.43
2019-01-31T16:40:16.799Z,3.20
2019-01-31T16:42:43.418Z,2.87
2019-01-31T16:45:12.199Z,3.20
2019-01-31T16:47:38.736Z,3.60
2019-01-31T16:50:14.228Z,3.63
2019-01-31T16:52:41.044Z,3.60
2019-01-31T16:55:10.901Z,3.33
2019-01-31T16:57:37.470Z,3.90
2019-01-31T17:00:19.986Z,2.20
2019-01-31T17:02:46.620Z,3.10
2019-01-31T17:05:16.001Z,3.00
2019-01-31T17:07:42.685Z,3.97
2019-01-31T17:10:09.541Z,3.03
2019-01-31T17:12:36.330Z,3.10
2019-01-31T17:15:05.461Z,2.90
2019-01-31T17:17:32.158Z,2.57
2019-01-31T17:19:58.728Z,3.33
2019-01-31T17:22:25.469Z,2.80
2019-01-31T17:24:52.127Z,4.00
2019-01-31T17:27:20.621Z,3.00
2019-01-31T17:29:47.223Z,3.70
2019-01-31T17:32:13.764Z,3.63
2019-01-31T17:34:40.453Z,3.50
2019-01-31T17:37:06.974Z,2.97
2019-01-31T17:39:33.525Z,2.80
2019-01-31T17:42:00.105Z,4.77
2019-01-31T17:44:26.628Z,3.00
2019-01-31T17:46:53.190Z,3.60
2019-01-31T17:49:19.770Z,3.37
2019-01-31T17:51:47.335Z,3.60
2019-01-31T17:54:13.976Z,3.50
2019-01-31T17:56:40.743Z,4.20
2019-01-31T17:59:07.277Z,3.10
2019-01-31T18:01:33.942Z,3.70
2019-01-31T18:04:00.513Z,3.67
2019-01-31T18:06:27.086Z,3.23
2019-01-31T18:08:53.609Z,3.37
2019-01-31T18:11:20.169Z,3.90
2019-01-31T18:13:46.758Z,2.80
2019-01-31T18:16:13.438Z,3.40
2019-01-31T18:18:39.998Z,3.40
2019-01-31T18:21:06.569Z,3.40
2019-01-31T18:23:33.091Z,2.90
2019-01-31T18:25:59.662Z,3.10
2019-01-31T18:28:26.240Z,3.30
2019-01-31T18:30:52.745Z,2.50
2019-01-31T18:33:19.429Z,3.17
2019-01-31T18:35:46.012Z,3.27
2019-01-31T18:38:12.520Z,2.70
2019-01-31T18:40:39.086Z,2.73
2019-01-31T18:43:05.654Z,3.43
2019-01-31T18:45:33.709Z,4.80
2019-01-31T18:48:00.458Z,3.80
2019-01-31T18:50:29.680Z,3.20
2019-01-31T18:52:56.353Z,4.00
2019-01-31T18:55:23.273Z,3.50
2019-01-31T18:57:49.825Z,4.20
2019-01-31T19:00:22.990Z,3.20
2019-01-31T19:02:50.191Z,3.97
2019-01-31T19:05:16.743Z,3.60
2019-01-31T19:07:45.534Z,3.70
2019-01-31T19:10:13.422Z,3.83
2019-01-31T19:12:40.170Z,4.33
2019-01-31T19:15:24.448Z,3.03
2019-01-31T19:17:51.925Z,6.60
2019-01-31T19:20:29.212Z,4.57
2019-01-31T19:22:57.309Z,4.30
2019-01-31T19:25:25.047Z,3.37
2019-01-31T19:27:51.693Z,3.40
2019-01-31T19:30:20.720Z,3.20
2019-01-31T19:32:47.400Z,3.00
2019-01-31T19:35:14.016Z,5.87
2019-01-31T19:37:40.677Z,3.50
2019-01-31T19:40:10.913Z,4.10
2019-01-31T19:42:52.970Z,3.47
2019-01-31T19:45:28.320Z,3.20
2019-01-31T19:47:55.141Z,5.07
2019-01-31T19:50:21.808Z,5.40
2019-01-31T19:52:48.637Z,3.17
2019-01-31T19:55:15.296Z,4.50
2019-01-31T19:57:42.087Z,3.90
2019-01-31T20:00:14.334Z,4.20
2019-01-31T20:02:41.174Z,3.40
2019-01-31T20:05:08.110Z,3.40
2019-01-31T20:07:34.952Z,4.20
2019-01-31T20:10:01.975Z,3.73
2019-01-31T20:12:28.625Z,3.70
2019-01-31T20:14:55.468Z,3.77
2019-01-31T20:17:22.242Z,4.30
2019-01-31T20:19:48.869Z,4.37
2019-01-31T20:22:15.528Z,3.37
2019-01-31T20:24:42.166Z,3.60
2019-01-31T20:27:08.834Z,3.70
2019-01-31T20:29:35.602Z,4.60
2019-01-31T20:32:02.702Z,3.93
2019-01-31T20:34:29.489Z,3.87
2019-01-31T20:36:56.112Z,3.70
2019-01-31T20:39:22.757Z,3.10
2019-01-31T20:41:54.452Z,4.47
2019-01-31T20:44:17.952Z,3.63
2019-01-31T20:46:45.611Z,4.23
2019-01-31T20:49:12.303Z,4.40
2019-01-31T20:51:38.965Z,3.80
2019-01-31T20:54:05.640Z,4.90
2019-01-31T20:56:33.592Z,7.23
2019-01-31T20:59:00.441Z,4.43
2019-01-31T21:01:27.105Z,4.80
2019-01-31T21:03:53.750Z,7.30
2019-01-31T21:06:20.453Z,10.77
2019-01-31T21:08:47.095Z,7.13
2019-01-31T21:11:13.756Z,4.70
2019-01-31T21:13:40.514Z,4.60
2019-01-31T21:16:07.154Z,3.87
2019-01-31T21:18:33.815Z,4.13
2019-01-31T21:21:00.467Z,6.37
2019-01-31T21:23:27.132Z,6.83
2019-01-31T21:25:53.777Z,6.53
2019-01-31T21:28:20.440Z,6.73
2019-01-31T21:30:47.093Z,5.07
2019-01-31T21:33:13.761Z,3.87
2019-01-31T21:35:40.762Z,5.07
2019-01-31T21:38:07.415Z,4.60
2019-01-31T21:40:34.243Z,5.43
2019-01-31T21:43:00.989Z,5.50
2019-01-31T21:45:27.770Z,5.50
2019-01-31T21:47:54.433Z,7.83
2019-01-31T21:50:25.790Z,6.40
2019-01-31T21:52:52.541Z,6.47
2019-01-31T21:55:19.218Z,5.10
2019-01-31T21:57:46.062Z,5.47
2019-01-31T22:00:16.298Z,7.23
2019-01-31T22:02:43.068Z,5.57
2019-01-31T22:05:12.439Z,8.37
2019-01-31T22:07:39.189Z,5.57
2019-01-31T22:10:08.566Z,7.27
2019-01-31T22:12:35.199Z,7.03
2019-01-31T22:15:01.914Z,5.40
2019-01-31T22:17:28.549Z,5.40
2019-01-31T22:19:55.133Z,4.50
2019-01-31T22:22:21.801Z,5.80
2019-01-31T22:24:48.438Z,5.93
2019-01-31T22:27:15.109Z,4.10
2019-01-31T22:29:41.763Z,4.73
2019-01-31T22:32:08.545Z,4.13
2019-01-31T22:34:36.036Z,4.47
2019-01-31T22:37:02.735Z,5.00
2019-01-31T22:39:29.376Z,5.20
2019-01-31T22:41:56.057Z,5.20
2019-01-31T22:44:22.722Z,5.40
2019-01-31T22:46:49.389Z,6.10
2019-01-31T22:49:16.065Z,6.40
2019-01-31T22:51:42.733Z,4.60
2019-01-31T22:54:09.467Z,4.00
2019-01-31T22:56:36.090Z,4.27
2019-01-31T22:59:03.506Z,5.33
2019-01-31T23:01:32.529Z,4.00
2019-01-31T23:03:59.270Z,5.07
2019-01-31T23:06:25.935Z,3.23
2019-01-31T23:08:52.595Z,3.87
2019-01-31T23:11:19.409Z,4.07
2019-01-31T23:13:46.133Z,4.80
2019-01-31T23:16:12.821Z,5.40
2019-01-31T23:18:39.493Z,5.60
2019-01-31T23:21:06.133Z,7.83
2019-01-31T23:23:32.769Z,7.00
2019-01-31T23:25:59.440Z,5.73
2019-01-31T23:28:26.141Z,6.30
2019-01-31T23:30:52.765Z,6.37
2019-01-31T23:33:19.457Z,4.83
2019-01-31T23:35:46.088Z,5.33
2019-01-31T23:38:12.833Z,7.17
2019-01-31T23:40:39.493Z,4.40
2019-01-31T23:43:06.289Z,4.20
2019-01-31T23:45:33.155Z,5.43
2019-01-31T23:47:59.863Z,4.90
2019-01-31T23:50:26.821Z,6.27
2019-01-31T23:52:53.603Z,6.30
2019-01-31T23:55:20.446Z,7.03
2019-01-31T23:57:47.121Z,7.00
